Tenakee Springs, Alaska
Current Conditions -  °F | °C
As of 11:56 AM on Saturday 20 Dec 2014 (Local Time) from PAOH Reporting Station
Light Rain Light Rain  
Wind Chill: 33°   Ceiling: Unl
Heat Index: 40°   Visibility: 10mi
Dew Point: 37°   Wind: 13mph
Humidity: 89%   Direction: 110°ESE
Pressure: 28.96"   Gusts: NA
Location:  57.78°N, 135.22°W
Report Text: PAOH 202056Z AUTO 11011KT 10SM -RA FEW036 04/03 A2896 RMK AO2 TSNO 56005 60000 T00440027 P0000 SLP808 $
Loading
Personal Weather Stations






























Interactive Weather Map New forecast layout! Learn more

10-Day Weather Forecast

Advertisements
Track Severe Weather on mobile